createdAt,value
2022-10-28T00:01:14.888Z,3.78
2022-10-28T00:03:43.866Z,7.13
2022-10-28T00:06:16.488Z,6.90
2022-10-28T00:08:43.334Z,3.97
2022-10-28T00:13:38.792Z,3.80
2022-10-28T00:16:17.116Z,7.03
2022-10-28T00:18:45.188Z,4.75
2022-10-28T00:21:17.921Z,4.82
2022-10-28T00:23:45.317Z,5.15
2022-10-28T00:26:25.468Z,5.18
2022-10-28T00:28:58.666Z,5.43
2022-10-28T00:31:27.796Z,6.75
2022-10-28T00:33:55.054Z,4.18
2022-10-28T00:36:23.871Z,4.20
2022-10-28T00:38:52.049Z,5.18
2022-10-28T00:41:31.065Z,10.90
2022-10-28T00:44:42.225Z,5.55
2022-10-28T00:47:23.961Z,3.72
2022-10-28T00:49:54.550Z,4.55
2022-10-28T00:52:27.727Z,3.92
2022-10-28T00:54:57.578Z,4.65
2022-10-28T00:57:28.762Z,6.13
2022-10-28T00:59:55.613Z,4.05
2022-10-28T01:02:22.347Z,3.97
2022-10-28T01:04:49.604Z,2.63
2022-10-28T01:07:17.624Z,7.20
2022-10-28T01:09:44.664Z,4.90
2022-10-28T01:12:40.714Z,3.72
2022-10-28T01:15:20.155Z,3.05
2022-10-28T01:17:58.855Z,3.90
2022-10-28T01:20:39.636Z,3.90
2022-10-28T01:23:18.799Z,2.38
2022-10-28T01:26:11.886Z,3.05
2022-10-28T01:29:03.257Z,3.42
2022-10-28T01:31:44.541Z,2.42
2022-10-28T01:34:30.701Z,4.13
2022-10-28T01:37:30.341Z,5.60
2022-10-28T01:40:20.867Z,4.38
2022-10-28T01:43:04.596Z,6.13
2022-10-28T01:45:37.317Z,4.72
2022-10-28T01:48:13.336Z,3.10
2022-10-28T01:51:00.093Z,2.95
2022-10-28T01:53:33.796Z,5.53
2022-10-28T01:56:05.448Z,3.95
2022-10-28T01:58:33.387Z,3.70
2022-10-28T02:01:04.729Z,4.38
2022-10-28T02:03:31.283Z,6.03
2022-10-28T02:06:00.287Z,4.88
2022-10-28T02:08:53.365Z,4.07
2022-10-28T02:11:29.339Z,2.55
2022-10-28T02:14:11.148Z,3.65
2022-10-28T02:16:56.604Z,2.40
2022-10-28T02:19:43.565Z,3.00
2022-10-28T02:22:40.805Z,2.95
2022-10-28T02:25:13.083Z,2.95
2022-10-28T02:28:00.098Z,3.97
2022-10-28T02:30:39.886Z,3.13
2022-10-28T02:33:12.778Z,2.78
2022-10-28T02:35:45.549Z,2.40
2022-10-28T02:38:19.510Z,3.58
2022-10-28T02:43:22.043Z,6.53
2022-10-28T02:45:53.974Z,3.28
2022-10-28T02:48:28.591Z,2.25
2022-10-28T02:51:02.979Z,2.53
2022-10-28T02:53:36.899Z,2.95
2022-10-28T02:56:06.309Z,3.13
2022-10-28T02:58:42.387Z,3.60
2022-10-28T03:01:09.166Z,6.03
2022-10-28T03:03:35.833Z,3.25
2022-10-28T03:06:02.386Z,3.28
2022-10-28T03:08:28.864Z,5.20
2022-10-28T03:10:55.383Z,2.85
2022-10-28T03:13:21.891Z,2.60
2022-10-28T03:15:48.456Z,4.05
2022-10-28T03:18:17.619Z,4.53
2022-10-28T03:20:44.162Z,5.03
2022-10-28T03:23:10.782Z,8.25
2022-10-28T03:25:37.436Z,5.85
2022-10-28T03:28:04.055Z,3.22
2022-10-28T03:30:30.913Z,2.88
2022-10-28T03:35:24.001Z,8.45
2022-10-28T03:37:50.619Z,6.68
2022-10-28T03:40:17.318Z,4.45
2022-10-28T03:42:44.441Z,5.45
2022-10-28T03:45:11.219Z,5.07
2022-10-28T03:47:37.803Z,2.67
2022-10-28T03:50:04.625Z,3.17
2022-10-28T03:52:31.453Z,3.63
2022-10-28T03:54:57.928Z,2.08
2022-10-28T03:57:24.798Z,3.78
2022-10-28T03:59:51.304Z,5.18
2022-10-28T04:02:17.992Z,2.58
2022-10-28T04:04:44.597Z,2.92
2022-10-28T04:07:11.177Z,5.45
2022-10-28T04:09:37.737Z,3.15
2022-10-28T04:14:32.364Z,3.25
2022-10-28T04:16:58.871Z,2.60
2022-10-28T04:19:25.365Z,2.60
2022-10-28T04:21:51.859Z,3.33
2022-10-28T04:24:18.351Z,3.78
2022-10-28T04:26:44.869Z,3.42
2022-10-28T04:29:11.392Z,2.88
2022-10-28T04:36:31.247Z,1.88
2022-10-28T04:38:57.722Z,2.30
2022-10-28T04:41:24.291Z,2.80
2022-10-28T04:43:50.858Z,3.45
2022-10-28T04:46:17.342Z,7.18
2022-10-28T04:48:43.857Z,4.40
2022-10-28T04:51:10.550Z,4.47
2022-10-28T04:53:37.003Z,2.40
2022-10-28T04:56:03.667Z,3.75
2022-10-28T04:58:30.364Z,4.55
2022-10-28T05:00:57.182Z,3.22
2022-10-28T05:03:23.780Z,2.80
2022-10-28T05:05:50.471Z,3.70
2022-10-28T05:08:16.951Z,4.85
2022-10-28T05:10:43.585Z,3.20
2022-10-28T05:13:10.087Z,3.33
2022-10-28T05:15:36.612Z,2.60
2022-10-28T05:18:03.092Z,6.20
2022-10-28T05:20:29.687Z,4.47
2022-10-28T05:22:57.038Z,4.90
2022-10-28T05:25:24.018Z,3.90
2022-10-28T05:27:50.805Z,3.00
2022-10-28T05:30:18.518Z,4.55
2022-10-28T05:32:46.735Z,5.45
2022-10-28T05:35:15.137Z,3.83
2022-10-28T05:37:41.620Z,7.68
2022-10-28T05:40:08.935Z,2.72
2022-10-28T05:42:41.868Z,2.70
2022-10-28T05:45:09.731Z,5.20
2022-10-28T05:47:39.237Z,3.92
2022-10-28T05:50:07.109Z,6.72
2022-10-28T05:52:33.608Z,2.83
2022-10-28T05:55:00.108Z,2.90
2022-10-28T05:57:26.605Z,2.20
2022-10-28T05:59:53.092Z,3.38
2022-10-28T06:02:19.590Z,3.15
2022-10-28T06:04:46.119Z,4.03
2022-10-28T06:07:12.736Z,5.90
2022-10-28T06:09:39.285Z,4.82
2022-10-28T06:12:05.171Z,6.53
2022-10-28T06:14:31.806Z,7.72
2022-10-28T06:16:59.314Z,11.68
2022-10-28T06:19:25.889Z,9.40
2022-10-28T06:21:52.420Z,7.70
2022-10-28T06:24:18.983Z,8.07
2022-10-28T06:26:45.608Z,7.25
2022-10-28T06:29:12.181Z,4.18
2022-10-28T06:31:42.043Z,4.88
2022-10-28T06:34:11.428Z,4.65
2022-10-28T06:36:38.187Z,5.32
2022-10-28T06:39:05.495Z,7.57
2022-10-28T06:41:34.224Z,5.40
2022-10-28T06:44:04.011Z,4.38
2022-10-28T06:46:30.738Z,6.43
2022-10-28T06:49:04.747Z,5.88
2022-10-28T06:51:32.593Z,5.55
2022-10-28T06:53:59.202Z,4.28
2022-10-28T06:56:25.775Z,4.90
2022-10-28T06:58:54.030Z,3.45
2022-10-28T07:01:21.726Z,6.20
2022-10-28T07:03:48.679Z,7.03
2022-10-28T07:06:16.567Z,6.10
2022-10-28T07:08:43.185Z,4.68
2022-10-28T07:11:09.725Z,5.30
2022-10-28T07:13:36.246Z,4.45
2022-10-28T07:16:02.822Z,3.10
2022-10-28T07:18:29.953Z,3.63
2022-10-28T07:21:00.018Z,3.65
2022-10-28T07:23:27.042Z,6.82
2022-10-28T07:28:26.791Z,7.20
2022-10-28T07:30:53.570Z,6.55
2022-10-28T07:33:20.498Z,5.50
2022-10-28T07:35:47.234Z,7.15
2022-10-28T07:38:13.863Z,4.70
2022-10-28T07:40:41.021Z,4.78
2022-10-28T07:43:07.566Z,3.83
2022-10-28T07:45:35.561Z,5.20
2022-10-28T07:48:03.047Z,5.97
2022-10-28T07:50:29.894Z,6.65
2022-10-28T07:52:56.770Z,6.20
2022-10-28T07:55:23.585Z,6.57
2022-10-28T07:57:50.477Z,3.95
2022-10-28T08:00:17.141Z,7.50
2022-10-28T08:02:43.732Z,8.82
2022-10-28T08:05:10.443Z,8.52
2022-10-28T08:07:38.779Z,4.53
2022-10-28T08:10:06.973Z,8.05
2022-10-28T08:12:33.743Z,8.85
2022-10-28T08:15:00.340Z,6.30
2022-10-28T08:17:26.834Z,5.03
2022-10-28T08:19:53.367Z,9.88
2022-10-28T08:22:20.099Z,7.35
2022-10-28T08:24:46.673Z,6.70
2022-10-28T08:27:13.220Z,6.43
2022-10-28T08:29:39.710Z,5.72
2022-10-28T08:32:09.633Z,7.38
2022-10-28T08:34:39.273Z,8.05
2022-10-28T08:37:09.254Z,9.10
2022-10-28T08:39:35.863Z,10.05
2022-10-28T08:42:24.008Z,7.90
2022-10-28T08:45:03.945Z,10.15
2022-10-28T08:50:31.699Z,5.85
2022-10-28T08:53:12.513Z,6.68
2022-10-28T08:55:51.975Z,8.68
2022-10-28T08:58:25.253Z,7.88
2022-10-28T09:00:55.671Z,9.00
2022-10-28T09:03:25.688Z,5.88
2022-10-28T09:06:06.652Z,6.18
2022-10-28T09:08:46.914Z,4.65
2022-10-28T09:11:27.350Z,5.50
2022-10-28T09:14:23.482Z,6.45
2022-10-28T09:17:18.713Z,7.18
2022-10-28T09:19:50.301Z,5.72
2022-10-28T09:22:39.313Z,8.65
2022-10-28T09:25:12.569Z,6.80
2022-10-28T09:28:21.249Z,6.00
2022-10-28T09:31:15.408Z,8.18
2022-10-28T09:34:04.910Z,7.50
2022-10-28T09:36:39.713Z,7.57
2022-10-28T09:39:16.620Z,7.03
2022-10-28T09:41:45.811Z,5.78
2022-10-28T09:44:23.692Z,8.50
2022-10-28T09:46:56.997Z,10.07
2022-10-28T09:49:36.404Z,6.97
2022-10-28T09:52:10.969Z,9.52
2022-10-28T09:54:48.134Z,7.28
2022-10-28T09:57:17.245Z,11.35
2022-10-28T09:59:45.056Z,7.50
2022-10-28T10:02:28.363Z,8.60
2022-10-28T10:05:00.049Z,8.73
2022-10-28T10:07:38.826Z,9.50
2022-10-28T10:10:20.608Z,4.90
2022-10-28T10:12:52.373Z,6.38
2022-10-28T10:15:28.750Z,10.07
2022-10-28T10:17:59.167Z,9.80
2022-10-28T10:20:25.986Z,6.43
2022-10-28T10:25:19.609Z,8.27
2022-10-28T10:30:26.478Z,8.88
2022-10-28T10:32:53.336Z,10.20
2022-10-28T10:35:31.616Z,8.52
2022-10-28T10:38:01.276Z,5.95
2022-10-28T10:40:33.869Z,9.10
2022-10-28T10:43:22.553Z,9.93
2022-10-28T10:46:10.520Z,9.20
2022-10-28T10:48:37.326Z,9.52
2022-10-28T10:53:35.289Z,6.22
2022-10-28T10:56:05.903Z,10.00
2022-10-28T10:58:35.671Z,6.82
2022-10-28T11:01:05.956Z,9.25
2022-10-28T11:03:39.997Z,9.88
2022-10-28T11:06:22.963Z,10.40
2022-10-28T11:08:56.771Z,6.03
2022-10-28T11:11:38.492Z,8.93
2022-10-28T11:14:13.249Z,9.55
2022-10-28T11:16:54.778Z,8.00
2022-10-28T11:19:36.676Z,6.55
2022-10-28T11:22:13.766Z,6.25
2022-10-28T11:25:28.374Z,9.73
2022-10-28T11:28:24.204Z,5.88
2022-10-28T11:31:03.878Z,9.75
2022-10-28T11:33:50.910Z,8.93
2022-10-28T11:36:29.482Z,8.45
2022-10-28T11:39:06.896Z,8.95
2022-10-28T11:42:03.574Z,10.80
2022-10-28T11:44:41.714Z,7.72
2022-10-28T11:47:26.771Z,9.88
2022-10-28T11:50:09.992Z,10.20
2022-10-28T11:52:58.425Z,10.32
2022-10-28T11:55:37.230Z,4.90
2022-10-28T11:58:19.942Z,9.05
2022-10-28T12:01:08.276Z,11.82
2022-10-28T12:03:49.959Z,12.90
2022-10-28T12:06:35.483Z,8.48
2022-10-28T12:09:16.443Z,11.55
2022-10-28T12:11:56.560Z,11.18
2022-10-28T12:14:31.439Z,10.10
2022-10-28T12:17:14.588Z,8.32
2022-10-28T12:19:49.854Z,8.02
2022-10-28T12:22:45.437Z,8.68
2022-10-28T12:25:24.371Z,8.32
2022-10-28T12:27:54.236Z,6.75
2022-10-28T12:30:40.233Z,9.73
2022-10-28T12:33:17.751Z,7.55
2022-10-28T12:35:56.743Z,9.02
2022-10-28T12:38:32.022Z,6.60
2022-10-28T12:41:16.063Z,7.38
2022-10-28T12:43:49.746Z,9.10
2022-10-28T12:46:44.884Z,6.97
2022-10-28T12:49:23.183Z,7.28
2022-10-28T12:51:50.467Z,11.18
2022-10-28T12:54:53.821Z,9.55
2022-10-28T12:57:23.759Z,11.98
2022-10-28T13:00:24.239Z,8.70
2022-10-28T13:03:07.610Z,8.30
2022-10-28T13:05:55.611Z,10.10
2022-10-28T13:08:40.673Z,7.53
2022-10-28T13:11:10.478Z,10.77
2022-10-28T13:14:05.149Z,5.72
2022-10-28T13:16:51.276Z,16.83
2022-10-28T13:19:33.877Z,9.55
2022-10-28T13:22:10.506Z,6.95
2022-10-28T13:24:56.261Z,5.40
2022-10-28T13:27:23.465Z,8.43
2022-10-28T13:29:54.978Z,9.68
2022-10-28T13:32:40.471Z,9.95
2022-10-28T13:35:33.464Z,12.75
2022-10-28T13:38:02.628Z,5.07
2022-10-28T13:40:32.157Z,9.02
2022-10-28T13:43:00.114Z,10.23
2022-10-28T13:45:48.277Z,13.23
2022-10-28T13:48:30.566Z,6.18
2022-10-28T13:51:09.413Z,8.40
2022-10-28T13:53:45.608Z,6.85
2022-10-28T13:56:12.049Z,10.23
2022-10-28T13:58:38.591Z,11.73
2022-10-28T14:01:43.053Z,8.20
2022-10-28T14:04:37.722Z,5.60
2022-10-28T14:07:10.625Z,7.88
2022-10-28T14:09:41.256Z,7.78
2022-10-28T14:12:30.628Z,4.75
2022-10-28T14:15:24.522Z,3.65
2022-10-28T14:18:09.693Z,10.18
2022-10-28T14:20:48.849Z,5.13
2022-10-28T14:23:21.989Z,4.85
2022-10-28T14:25:51.614Z,3.20
2022-10-28T14:28:27.293Z,3.08
2022-10-28T14:31:09.330Z,5.60
2022-10-28T14:34:06.443Z,6.50
2022-10-28T14:36:59.658Z,7.15
2022-10-28T14:39:47.970Z,5.82
2022-10-28T14:45:43.588Z,5.10
2022-10-28T14:48:20.568Z,5.72
2022-10-28T14:50:51.398Z,4.00
2022-10-28T14:53:28.557Z,3.50
2022-10-28T14:56:02.768Z,6.90
2022-10-28T14:58:35.159Z,6.13
2022-10-28T15:01:23.244Z,3.47
2022-10-28T15:04:02.327Z,5.45
2022-10-28T15:06:42.474Z,7.72
2022-10-28T15:09:16.602Z,5.50
2022-10-28T15:11:46.553Z,4.80
2022-10-28T15:14:16.064Z,8.57
2022-10-28T15:16:49.891Z,5.60
2022-10-28T15:19:22.041Z,5.68
2022-10-28T15:22:06.279Z,3.60
2022-10-28T15:24:34.176Z,4.80
2022-10-28T15:27:00.872Z,6.40
2022-10-28T15:32:12.244Z,3.55
2022-10-28T15:34:38.942Z,4.50
2022-10-28T15:39:33.004Z,5.13
2022-10-28T15:42:01.146Z,4.93
2022-10-28T15:44:36.837Z,5.60
2022-10-28T15:47:32.850Z,4.60
2022-10-28T15:52:39.692Z,4.53
2022-10-28T15:55:18.517Z,8.52
2022-10-28T15:57:55.314Z,11.02
2022-10-28T16:00:32.158Z,5.20
2022-10-28T16:03:08.204Z,3.90
2022-10-28T16:05:34.740Z,12.23
2022-10-28T16:08:03.905Z,4.93
2022-10-28T16:10:45.461Z,5.75
2022-10-28T16:13:23.565Z,7.03
2022-10-28T16:16:04.270Z,5.55
2022-10-28T16:18:34.762Z,5.88
2022-10-28T16:21:03.852Z,9.82
2022-10-28T16:23:38.208Z,6.88
2022-10-28T16:26:05.321Z,4.97
2022-10-28T16:28:32.498Z,4.53
2022-10-28T16:31:00.973Z,5.50
2022-10-28T16:33:35.294Z,5.78
2022-10-28T16:36:02.585Z,5.45
2022-10-28T16:38:30.973Z,5.97
2022-10-28T16:41:02.575Z,4.32
2022-10-28T16:43:30.625Z,9.85
2022-10-28T16:45:59.778Z,9.32
2022-10-28T16:48:29.159Z,9.25
2022-10-28T16:50:56.419Z,7.05
2022-10-28T16:53:23.700Z,5.93
2022-10-28T16:55:50.845Z,13.27
2022-10-28T16:58:21.817Z,6.25
2022-10-28T17:00:51.253Z,9.98
2022-10-28T17:03:17.791Z,9.43
2022-10-28T17:05:44.387Z,5.88
2022-10-28T17:08:11.802Z,7.00
2022-10-28T17:10:42.655Z,7.47
2022-10-28T17:13:12.195Z,8.70
2022-10-28T17:15:39.539Z,6.60
2022-10-28T17:18:06.423Z,7.25
2022-10-28T17:20:33.652Z,8.88
2022-10-28T17:23:00.266Z,6.18
2022-10-28T17:25:26.979Z,7.75
2022-10-28T17:27:54.307Z,8.30
2022-10-28T17:30:21.615Z,7.60
2022-10-28T17:32:53.658Z,9.07
2022-10-28T17:35:21.841Z,6.95
2022-10-28T17:37:48.453Z,7.07
2022-10-28T17:40:15.677Z,4.93
2022-10-28T17:42:42.913Z,10.27
2022-10-28T17:45:10.477Z,11.15
2022-10-28T17:47:37.005Z,6.82
2022-10-28T17:50:03.940Z,5.75
2022-10-28T17:52:35.665Z,9.98
2022-10-28T17:55:05.189Z,8.75
2022-10-28T17:57:31.735Z,9.25
2022-10-28T17:59:58.396Z,7.50
2022-10-28T18:02:25.218Z,13.82
2022-10-28T18:12:12.495Z,10.23
2022-10-28T18:14:39.616Z,7.15
2022-10-28T18:17:06.208Z,12.20
2022-10-28T18:19:32.701Z,10.10
2022-10-28T18:21:59.340Z,12.27
2022-10-28T18:24:26.256Z,13.98
2022-10-28T18:26:54.678Z,13.48
2022-10-28T18:29:21.184Z,10.75
2022-10-28T18:31:47.777Z,14.82
2022-10-28T18:34:14.441Z,14.50
2022-10-28T18:36:41.441Z,7.38
2022-10-28T18:39:08.816Z,9.52
2022-10-28T18:41:41.392Z,12.10
2022-10-28T18:44:16.975Z,9.98
2022-10-28T18:46:45.198Z,14.55
2022-10-28T18:49:12.104Z,5.78
2022-10-28T18:51:38.601Z,14.23
2022-10-28T18:54:05.670Z,15.55
2022-10-28T18:56:34.082Z,11.05
2022-10-28T18:59:04.106Z,7.50
2022-10-28T19:01:31.950Z,14.20
2022-10-28T19:04:04.130Z,11.95
2022-10-28T19:06:32.870Z,15.18
2022-10-28T19:09:01.789Z,10.65
2022-10-28T19:11:31.104Z,8.55
2022-10-28T19:13:59.473Z,10.77
2022-10-28T19:16:27.365Z,12.75
2022-10-28T19:18:58.220Z,16.27
2022-10-28T19:21:27.302Z,7.75
2022-10-28T19:23:53.790Z,12.00
2022-10-28T19:26:20.647Z,7.68
2022-10-28T19:31:17.631Z,10.75
2022-10-28T19:33:45.235Z,7.85
2022-10-28T19:36:23.731Z,13.48
2022-10-28T19:38:53.529Z,13.10
2022-10-28T19:41:22.893Z,9.18
2022-10-28T19:43:59.093Z,9.25
2022-10-28T19:46:27.384Z,9.15
2022-10-28T19:48:59.259Z,11.45
2022-10-28T19:51:31.215Z,11.13
2022-10-28T19:54:03.169Z,10.02
2022-10-28T19:56:32.523Z,10.30
2022-10-28T19:59:00.874Z,17.80
2022-10-28T20:01:30.435Z,17.85
2022-10-28T20:03:57.096Z,10.50
2022-10-28T20:06:26.327Z,15.48
2022-10-28T20:08:53.555Z,10.75
2022-10-28T20:11:25.953Z,16.90
2022-10-28T20:14:01.371Z,15.38
2022-10-28T20:16:28.783Z,12.85
2022-10-28T20:18:56.481Z,14.68
2022-10-28T20:21:25.588Z,17.67
2022-10-28T20:23:54.286Z,12.70
2022-10-28T20:26:27.268Z,14.20
2022-10-28T20:28:54.644Z,22.60
2022-10-28T20:31:23.479Z,15.93
2022-10-28T20:33:52.567Z,16.92
2022-10-28T20:36:44.629Z,12.95
2022-10-28T20:39:17.714Z,14.77
2022-10-28T20:41:46.381Z,14.75
2022-10-28T20:44:13.079Z,14.93
2022-10-28T20:49:08.514Z,11.50
2022-10-28T20:51:35.969Z,12.43
2022-10-28T20:54:02.588Z,17.35
2022-10-28T20:56:34.347Z,16.40
2022-10-28T20:59:01.076Z,12.95
2022-10-28T21:01:32.525Z,12.15
2022-10-28T21:04:01.619Z,18.23
2022-10-28T21:06:28.494Z,17.20
2022-10-28T21:11:24.634Z,18.25
2022-10-28T21:13:53.279Z,15.93
2022-10-28T21:16:20.848Z,13.80
2022-10-28T21:18:48.085Z,17.45
2022-10-28T21:21:19.469Z,22.13
2022-10-28T21:23:46.613Z,17.35
2022-10-28T21:26:13.915Z,14.55
2022-10-28T21:28:43.418Z,12.80
2022-10-28T21:31:13.890Z,17.55
2022-10-28T21:33:45.656Z,18.42
2022-10-28T21:36:17.947Z,21.20
2022-10-28T21:38:45.417Z,13.68
2022-10-28T21:41:14.999Z,13.18
2022-10-28T21:43:43.370Z,20.08
2022-10-28T21:46:11.050Z,16.38
2022-10-28T21:48:47.072Z,19.33
2022-10-28T21:51:16.467Z,12.55
2022-10-28T21:53:44.330Z,14.63
2022-10-28T21:56:17.727Z,16.08
2022-10-28T21:58:45.921Z,22.00
2022-10-28T22:01:24.260Z,17.08
2022-10-28T22:03:52.272Z,15.35
2022-10-28T22:06:18.984Z,19.85
2022-10-28T22:08:46.728Z,14.70
2022-10-28T22:11:18.537Z,14.35
2022-10-28T22:13:45.339Z,20.15
2022-10-28T22:18:43.732Z,13.02
2022-10-28T22:21:18.096Z,13.57
2022-10-28T22:23:45.248Z,14.15
2022-10-28T22:26:15.968Z,14.50
2022-10-28T22:28:42.964Z,15.45
2022-10-28T22:31:12.209Z,16.35
2022-10-28T22:33:38.801Z,20.00
2022-10-28T22:36:08.400Z,12.20
2022-10-28T22:38:35.199Z,12.57
2022-10-28T22:43:28.389Z,23.27
2022-10-28T22:46:01.570Z,10.63
2022-10-28T22:48:28.924Z,14.43
2022-10-28T22:50:55.599Z,11.10
2022-10-28T22:53:22.533Z,17.38
2022-10-28T22:55:49.486Z,15.40
2022-10-28T22:58:16.752Z,16.75
2022-10-28T23:00:43.387Z,16.65
2022-10-28T23:03:11.004Z,18.88
2022-10-28T23:05:38.022Z,17.58
2022-10-28T23:08:04.819Z,17.52
2022-10-28T23:10:31.405Z,12.50
2022-10-28T23:13:02.627Z,15.05
2022-10-28T23:15:30.254Z,13.13
2022-10-28T23:17:57.897Z,11.68
2022-10-28T23:20:25.489Z,14.00
2022-10-28T23:22:56.361Z,12.95
2022-10-28T23:25:22.946Z,13.48
2022-10-28T23:27:49.562Z,13.82
2022-10-28T23:30:16.228Z,16.17
2022-10-28T23:32:43.697Z,11.50
2022-10-28T23:35:10.522Z,10.45
2022-10-28T23:42:30.761Z,15.70
2022-10-28T23:44:57.604Z,10.85
2022-10-28T23:52:17.221Z,12.40
2022-10-28T23:54:43.759Z,9.80
2022-10-28T23:57:10.452Z,17.40
2022-10-28T23:59:36.956Z,13.32
